Time;durP1;ratioP1;P1;durP2;ratioP2;P2;SDS_P1;SDS_P2;PMS_P1;PMS_P2;Temp;Humidity;BMP_temperature;BMP_pressure;BME280_temperature;BME280_humidity;BME280_pressure;Samples;Min_cycle;Max_cycle;Signal;HPM_P1;HPM_P2
2021/12/18 00:00:34;;;;;;;;;;;7.10;99.90;;;;;;5108424;27;19959;-74
2021/12/18 00:03:01;;;;;;;;;;;7.10;99.90;;;;;;5109131;28;19928;-75
2021/12/18 00:05:28;;;;;;;;;;;7.10;99.90;;;;;;5109368;28;19938;-74
2021/12/18 00:07:55;;;;;;;;;;;7.10;99.90;;;;;;5109141;28;19930;-74
2021/12/18 00:10:23;;;;;;;;;;;7.10;99.90;;;;;;5109610;28;20026;-75
2021/12/18 00:12:50;;;;;;;;;;;7.10;99.90;;;;;;5108185;28;19928;-74
2021/12/18 00:15:17;;;;;;;;;;;7.10;99.90;;;;;;5112429;28;20405;-73
2021/12/18 00:17:43;;;;;;;;;;;7.10;99.90;;;;;;5107316;28;20001;-73
2021/12/18 00:20:13;;;;;;;;;;;7.10;99.90;;;;;;5111057;28;19946;-74
2021/12/18 00:22:40;;;;;;;;;;;7.10;99.90;;;;;;5109821;28;19924;-74
2021/12/18 00:25:07;;;;;;;;;;;7.10;99.90;;;;;;5112089;28;19924;-74
2021/12/18 00:27:35;;;;;;;;;;;7.10;99.90;;;;;;5100827;28;19928;-74
2021/12/18 00:30:02;;;;;;;;;;;7.10;99.90;;;;;;5110303;28;19930;-75
2021/12/18 00:32:28;;;;;;;;;;;7.10;99.90;;;;;;5105369;28;20010;-74
2021/12/18 00:34:55;;;;;;;;;;;7.10;99.90;;;;;;5111718;28;19930;-74
2021/12/18 00:37:22;;;;;;;;;;;7.10;99.90;;;;;;5110182;28;19998;-74
2021/12/18 00:39:55;;;;;;;;;;;7.10;99.90;;;;;;5112926;28;20015;-73
2021/12/18 00:42:36;;;;;;;;;;;7.10;99.90;;;;;;5105275;27;19924;-74
2021/12/18 00:45:05;;;;;;;;;;;7.10;99.90;;;;;;5114128;27;20010;-74
2021/12/18 00:47:32;;;;;;;;;;;7.10;99.90;;;;;;5110550;28;20495;-74
2021/12/18 00:49:59;;;;;;;;;;;7.10;99.90;;;;;;5114247;27;20297;-74
2021/12/18 00:52:25;;;;;;;;;;;7.10;99.90;;;;;;5097531;28;19931;-74
2021/12/18 00:54:52;;;;;;;;;;;7.10;99.90;;;;;;5095369;28;19946;-74
2021/12/18 00:57:19;;;;;;;;;;;7.10;99.90;;;;;;5110488;28;19924;-74
2021/12/18 00:59:47;;;;;;;;;;;7.10;99.90;;;;;;5114259;28;20497;-74
2021/12/18 01:02:15;;;;;;;;;;;7.10;99.90;;;;;;5109932;27;19923;-76
2021/12/18 01:04:42;;;;;;;;;;;7.10;99.90;;;;;;5119950;28;20302;-74
2021/12/18 01:07:09;;;;;;;;;;;7.10;99.90;;;;;;5118205;27;19935;-76
2021/12/18 01:09:50;;;;;;;;;;;7.10;99.90;;;;;;5115519;27;20309;-74
2021/12/18 01:12:16;;;;;;;;;;;7.10;99.90;;;;;;5107960;27;20294;-74
2021/12/18 01:14:56;;;;;;;;;;;7.10;99.90;;;;;;5104418;27;20347;-74
2021/12/18 01:22:53;;;;;;;;;;;7.10;99.90;;;;;;5109664;27;19930;-74
2021/12/18 01:25:20;;;;;;;;;;;7.10;99.90;;;;;;5115348;28;19930;-74
2021/12/18 01:27:48;;;;;;;;;;;7.10;99.90;;;;;;5104687;28;19930;-73
2021/12/18 01:30:15;;;;;;;;;;;7.10;99.90;;;;;;5115241;27;19924;-73
2021/12/18 01:32:43;;;;;;;;;;;7.10;99.90;;;;;;5101238;28;20390;-73
2021/12/18 01:35:10;;;;;;;;;;;7.10;99.90;;;;;;5109456;27;19923;-73
2021/12/18 01:37:37;;;;;;;;;;;7.10;99.90;;;;;;5110281;27;20470;-73
2021/12/18 01:40:04;;;;;;;;;;;7.10;99.90;;;;;;5109750;27;20313;-74
2021/12/18 01:45:22;;;;;;;;;;;7.10;99.90;;;;;;5100500;27;19939;-73
2021/12/18 01:53:19;;;;;;;;;;;7.00;99.90;;;;;;5108988;27;19931;-73
2021/12/18 01:55:48;;;;;;;;;;;7.00;99.90;;;;;;5111543;27;19938;-73
2021/12/18 01:58:19;;;;;;;;;;;7.00;99.90;;;;;;5105057;27;20028;-74
2021/12/18 02:00:46;;;;;;;;;;;7.00;99.90;;;;;;5112069;27;19930;-75
2021/12/18 02:03:14;;;;;;;;;;;7.00;99.90;;;;;;5110242;27;19930;-74
2021/12/18 02:05:40;;;;;;;;;;;7.10;99.90;;;;;;5114320;27;19923;-74
2021/12/18 02:08:08;;;;;;;;;;;7.00;99.90;;;;;;5104294;27;19931;-74
2021/12/18 02:10:45;;;;;;;;;;;7.00;99.90;;;;;;5112754;27;19966;-74
2021/12/18 02:13:23;;;;;;;;;;;7.00;99.90;;;;;;5112302;27;19928;-75
2021/12/18 02:21:23;;;;;;;;;;;7.00;99.90;;;;;;5109292;28;19930;-75
2021/12/18 02:23:50;;;;;;;;;;;7.00;99.90;;;;;;5109830;27;19950;-74
2021/12/18 02:26:17;;;;;;;;;;;7.00;99.90;;;;;;5107471;28;20011;-74
2021/12/18 02:28:47;;;;;;;;;;;7.00;99.90;;;;;;5108744;27;20023;-75
2021/12/18 02:31:14;;;;;;;;;;;7.00;99.90;;;;;;5107214;27;19924;-74
2021/12/18 02:33:41;;;;;;;;;;;7.00;99.90;;;;;;5109325;28;20006;-74
2021/12/18 02:36:10;;;;;;;;;;;7.00;99.90;;;;;;5106796;28;19924;-75
2021/12/18 02:38:58;;;;;;;;;;;7.00;99.90;;;;;;5105244;28;19966;-75
2021/12/18 02:41:30;;;;;;;;;;;7.00;99.90;;;;;;5108992;28;19923;-75
2021/12/18 02:43:59;;;;;;;;;;;7.00;99.90;;;;;;5106200;27;20011;-75
2021/12/18 02:46:26;;;;;;;;;;;7.00;99.90;;;;;;5105732;27;19923;-75
2021/12/18 02:48:53;;;;;;;;;;;7.00;99.90;;;;;;5110446;27;19931;-75
2021/12/18 02:51:20;;;;;;;;;;;7.00;99.90;;;;;;5108403;27;19927;-75
2021/12/18 02:53:50;;;;;;;;;;;7.00;99.90;;;;;;5112615;28;20375;-74
2021/12/18 02:56:18;;;;;;;;;;;7.00;99.90;;;;;;5103462;28;19990;-74
2021/12/18 02:58:46;;;;;;;;;;;7.00;99.90;;;;;;5109516;28;20388;-75
2021/12/18 03:01:13;;;;;;;;;;;7.00;99.90;;;;;;5108667;27;19924;-74
2021/12/18 03:03:42;;;;;;;;;;;7.00;99.90;;;;;;5108968;28;19924;-74
2021/12/18 03:06:20;;;;;;;;;;;7.00;99.90;;;;;;5108214;27;19924;-74
2021/12/18 03:08:55;;;;;;;;;;;7.00;99.90;;;;;;5112596;27;19927;-74
2021/12/18 03:25:09;;;;;;;;;;;7.00;99.90;;;;;;5103197;28;19931;-75
2021/12/18 03:27:36;;;;;;;;;;;7.10;99.90;;;;;;5109277;28;20437;-74
2021/12/18 03:30:03;;;;;;;;;;;7.00;99.90;;;;;;5110860;27;20034;-74
2021/12/18 03:32:30;;;;;;;;;;;7.00;99.90;;;;;;5104494;28;20022;-74
2021/12/18 03:34:56;;;;;;;;;;;7.10;99.90;;;;;;5109862;28;19930;-74
2021/12/18 03:37:23;;;;;;;;;;;7.00;99.90;;;;;;5109966;28;19930;-74
2021/12/18 03:39:50;;;;;;;;;;;7.00;99.90;;;;;;5113331;27;19934;-76
2021/12/18 03:42:18;;;;;;;;;;;7.00;99.90;;;;;;5110997;28;19923;-75
2021/12/18 03:44:44;;;;;;;;;;;7.00;99.90;;;;;;5111205;28;19928;-75
2021/12/18 03:47:11;;;;;;;;;;;7.00;99.90;;;;;;5109948;28;19924;-74
2021/12/18 03:49:38;;;;;;;;;;;7.00;99.90;;;;;;5109480;28;19953;-74
2021/12/18 03:52:05;;;;;;;;;;;7.00;99.90;;;;;;5107646;28;19952;-73
2021/12/18 03:54:31;;;;;;;;;;;7.00;99.90;;;;;;5104370;28;19938;-73
2021/12/18 03:56:58;;;;;;;;;;;6.90;99.90;;;;;;5107325;28;19924;-73
2021/12/18 03:59:26;;;;;;;;;;;7.00;99.90;;;;;;5103085;28;19924;-74
2021/12/18 04:01:53;;;;;;;;;;;6.90;99.90;;;;;;5105608;28;19931;-73
2021/12/18 04:04:19;;;;;;;;;;;7.00;99.90;;;;;;5103079;28;19923;-74
2021/12/18 04:06:46;;;;;;;;;;;7.00;99.90;;;;;;5107722;28;19938;-74
2021/12/18 04:09:13;;;;;;;;;;;7.00;99.90;;;;;;5110826;28;19938;-74
2021/12/18 04:11:40;;;;;;;;;;;7.00;99.90;;;;;;5107687;28;20018;-74
2021/12/18 04:14:06;;;;;;;;;;;7.00;99.90;;;;;;5106570;28;19924;-74
2021/12/18 04:16:35;;;;;;;;;;;6.90;99.90;;;;;;5112415;28;20371;-74
2021/12/18 04:19:02;;;;;;;;;;;7.00;99.90;;;;;;5111260;28;19932;-74
2021/12/18 04:21:29;;;;;;;;;;;7.00;99.90;;;;;;5113709;28;19930;-74
2021/12/18 04:23:55;;;;;;;;;;;6.90;99.90;;;;;;5112946;27;19974;-74
2021/12/18 04:26:22;;;;;;;;;;;7.00;99.90;;;;;;5115499;28;19924;-74
2021/12/18 04:28:49;;;;;;;;;;;7.00;99.90;;;;;;5109292;27;19934;-74
2021/12/18 04:31:16;;;;;;;;;;;6.90;99.90;;;;;;5113376;27;19923;-73
2021/12/18 04:33:44;;;;;;;;;;;6.90;99.90;;;;;;5108504;27;19954;-74
2021/12/18 04:36:11;;;;;;;;;;;7.00;99.90;;;;;;5114737;28;20390;-74
2021/12/18 04:38:37;;;;;;;;;;;6.90;99.90;;;;;;5108644;27;20422;-74
2021/12/18 04:41:05;;;;;;;;;;;7.00;99.90;;;;;;5110949;28;20450;-74
2021/12/18 04:43:31;;;;;;;;;;;7.00;99.90;;;;;;5109995;27;20522;-75
2021/12/18 04:45:58;;;;;;;;;;;7.00;99.90;;;;;;5111264;28;19932;-74
2021/12/18 04:48:25;;;;;;;;;;;7.00;99.90;;;;;;5111793;27;19924;-74
2021/12/18 04:50:53;;;;;;;;;;;7.00;99.90;;;;;;5112878;28;19930;-74
2021/12/18 04:53:19;;;;;;;;;;;7.00;99.90;;;;;;5112568;28;19924;-74
2021/12/18 04:55:46;;;;;;;;;;;7.00;99.90;;;;;;5105949;27;20356;-75
2021/12/18 04:58:13;;;;;;;;;;;7.00;99.90;;;;;;5113036;28;20396;-73
2021/12/18 05:00:46;;;;;;;;;;;6.90;99.90;;;;;;5111825;27;19930;-75
2021/12/18 05:03:14;;;;;;;;;;;7.00;99.90;;;;;;5114672;27;19924;-76
2021/12/18 05:05:40;;;;;;;;;;;7.00;99.90;;;;;;5110739;27;20061;-75
2021/12/18 05:08:08;;;;;;;;;;;6.90;99.90;;;;;;5113320;28;19923;-76
2021/12/18 05:10:35;;;;;;;;;;;6.90;99.90;;;;;;5114649;27;19991;-75
2021/12/18 05:13:02;;;;;;;;;;;6.90;99.90;;;;;;5115128;27;19930;-75
2021/12/18 05:15:28;;;;;;;;;;;7.00;99.90;;;;;;5109287;27;19931;-75
2021/12/18 05:17:55;;;;;;;;;;;6.90;99.90;;;;;;5112529;27;19931;-75
2021/12/18 05:20:22;;;;;;;;;;;6.90;99.90;;;;;;5112396;27;19924;-76
2021/12/18 05:22:49;;;;;;;;;;;6.90;99.90;;;;;;5112421;27;19934;-75
2021/12/18 05:25:17;;;;;;;;;;;6.90;99.90;;;;;;5109276;27;19924;-74
2021/12/18 05:27:43;;;;;;;;;;;6.90;99.90;;;;;;5113101;28;19923;-75
2021/12/18 05:30:11;;;;;;;;;;;6.90;99.90;;;;;;5113628;27;19927;-75
2021/12/18 05:32:38;;;;;;;;;;;7.00;99.90;;;;;;5113059;27;19943;-75
2021/12/18 05:35:05;;;;;;;;;;;6.90;99.90;;;;;;5112768;28;20022;-74
2021/12/18 05:37:44;;;;;;;;;;;6.90;99.90;;;;;;5112898;27;19931;-75
2021/12/18 05:40:11;;;;;;;;;;;6.90;99.90;;;;;;5113636;27;19958;-75
2021/12/18 05:42:39;;;;;;;;;;;6.90;99.90;;;;;;5115121;27;19927;-77
2021/12/18 05:45:07;;;;;;;;;;;6.90;99.90;;;;;;5097505;27;19924;-74
2021/12/18 05:47:34;;;;;;;;;;;6.90;99.90;;;;;;5103579;27;19980;-75
2021/12/18 05:50:00;;;;;;;;;;;6.90;99.90;;;;;;5111188;27;19930;-74
2021/12/18 05:52:27;;;;;;;;;;;6.90;99.90;;;;;;5108770;27;19932;-74
2021/12/18 05:54:54;;;;;;;;;;;6.90;99.90;;;;;;5101404;27;20358;-74
2021/12/18 05:57:21;;;;;;;;;;;6.90;99.90;;;;;;5108898;27;19923;-75
2021/12/18 05:59:49;;;;;;;;;;;6.90;99.90;;;;;;5112414;28;20295;-75
2021/12/18 06:02:16;;;;;;;;;;;6.90;99.90;;;;;;5112202;27;19924;-75
2021/12/18 06:04:43;;;;;;;;;;;6.90;99.90;;;;;;5112301;27;19994;-75
2021/12/18 06:07:17;;;;;;;;;;;6.90;99.90;;;;;;5112917;27;19928;-75
2021/12/18 06:09:43;;;;;;;;;;;6.90;99.90;;;;;;5110587;28;20377;-75
2021/12/18 06:12:10;;;;;;;;;;;6.90;99.90;;;;;;5114334;27;19928;-76
2021/12/18 06:14:37;;;;;;;;;;;6.90;99.90;;;;;;5120228;27;20022;-75
2021/12/18 06:17:05;;;;;;;;;;;6.90;99.90;;;;;;5122915;28;19987;-75
2021/12/18 06:19:32;;;;;;;;;;;6.90;99.90;;;;;;5114751;28;19934;-74
2021/12/18 06:21:58;;;;;;;;;;;6.90;99.90;;;;;;5109359;27;19930;-75
2021/12/18 06:24:26;;;;;;;;;;;6.80;99.90;;;;;;5113922;28;20015;-72
2021/12/18 06:26:53;;;;;;;;;;;6.80;99.90;;;;;;5114101;27;19984;-74
2021/12/18 06:29:20;;;;;;;;;;;6.80;99.90;;;;;;5112507;28;21754;-74
2021/12/18 06:31:46;;;;;;;;;;;6.80;99.90;;;;;;5111193;27;19928;-74
2021/12/18 06:34:14;;;;;;;;;;;6.80;99.90;;;;;;5097601;27;19925;-74
2021/12/18 06:36:41;;;;;;;;;;;6.80;99.90;;;;;;5111566;27;19938;-74
2021/12/18 06:39:08;;;;;;;;;;;6.80;99.90;;;;;;5110796;27;19940;-73
2021/12/18 06:41:34;;;;;;;;;;;6.80;99.90;;;;;;5106236;28;20394;-75
2021/12/18 06:44:01;;;;;;;;;;;6.70;99.90;;;;;;5112554;27;19928;-74
2021/12/18 06:46:28;;;;;;;;;;;6.70;99.90;;;;;;5111601;27;20303;-74
2021/12/18 06:48:54;;;;;;;;;;;6.70;99.90;;;;;;5108807;27;19930;-74
2021/12/18 06:51:22;;;;;;;;;;;6.70;99.90;;;;;;5113287;28;19928;-74
2021/12/18 06:53:49;;;;;;;;;;;6.70;99.90;;;;;;5108689;27;19932;-74
2021/12/18 06:56:16;;;;;;;;;;;6.70;99.90;;;;;;5111536;27;19930;-74
2021/12/18 06:58:42;;;;;;;;;;;6.80;99.90;;;;;;5112685;27;19977;-74
2021/12/18 07:01:09;;;;;;;;;;;6.80;99.90;;;;;;5110373;27;19930;-74
2021/12/18 07:03:36;;;;;;;;;;;6.80;99.90;;;;;;5108503;27;19931;-76
2021/12/18 07:06:02;;;;;;;;;;;6.80;99.90;;;;;;5111154;27;19924;-75
2021/12/18 07:08:30;;;;;;;;;;;6.70;99.90;;;;;;5107570;27;19923;-76
2021/12/18 07:10:57;;;;;;;;;;;6.80;99.90;;;;;;5113646;28;19930;-76
2021/12/18 07:13:24;;;;;;;;;;;6.80;99.90;;;;;;5111252;28;19927;-76
2021/12/18 07:15:51;;;;;;;;;;;6.70;99.90;;;;;;5114673;28;20014;-77
2021/12/18 07:18:18;;;;;;;;;;;6.80;99.90;;;;;;5106816;27;20413;-75
2021/12/18 07:20:45;;;;;;;;;;;6.70;99.90;;;;;;5110172;28;19942;-75
2021/12/18 07:23:11;;;;;;;;;;;6.80;99.90;;;;;;5109803;28;20339;-75
2021/12/18 07:25:39;;;;;;;;;;;6.70;99.90;;;;;;5110066;27;19994;-76
2021/12/18 07:28:06;;;;;;;;;;;6.70;99.90;;;;;;5104255;28;19931;-76
2021/12/18 07:30:33;;;;;;;;;;;6.70;99.90;;;;;;5106806;27;19923;-75
2021/12/18 07:33:00;;;;;;;;;;;6.80;99.90;;;;;;5106117;27;19966;-76
2021/12/18 07:35:27;;;;;;;;;;;6.80;99.90;;;;;;5110827;28;19963;-75
2021/12/18 07:37:54;;;;;;;;;;;6.80;99.90;;;;;;5112775;28;19930;-75
2021/12/18 07:40:20;;;;;;;;;;;6.80;99.90;;;;;;5103626;28;19938;-75
2021/12/18 07:42:48;;;;;;;;;;;6.80;99.90;;;;;;5105624;27;20038;-74
2021/12/18 07:45:15;;;;;;;;;;;6.80;99.90;;;;;;5109612;28;19943;-75
2021/12/18 07:47:44;;;;;;;;;;;6.80;99.90;;;;;;5109993;28;19975;-74
2021/12/18 07:50:18;;;;;;;;;;;6.80;99.90;;;;;;5107611;27;19923;-75
2021/12/18 07:52:44;;;;;;;;;;;6.80;99.90;;;;;;5104487;28;19924;-74
2021/12/18 07:55:11;;;;;;;;;;;6.80;99.90;;;;;;5109233;28;19924;-75
2021/12/18 07:57:38;;;;;;;;;;;6.90;99.90;;;;;;5109622;28;19927;-74
2021/12/18 08:00:08;;;;;;;;;;;6.80;99.90;;;;;;5111056;27;20022;-75
2021/12/18 08:02:35;;;;;;;;;;;6.80;99.90;;;;;;5106492;28;19923;-74
2021/12/18 08:05:01;;;;;;;;;;;6.80;99.90;;;;;;5112309;28;19934;-74
2021/12/18 08:07:28;;;;;;;;;;;6.80;99.90;;;;;;5107067;28;20305;-74
2021/12/18 08:09:55;;;;;;;;;;;6.80;99.90;;;;;;5106933;28;20291;-75
2021/12/18 08:12:21;;;;;;;;;;;6.80;99.90;;;;;;5106694;28;20286;-75
2021/12/18 08:14:48;;;;;;;;;;;6.70;99.90;;;;;;5107816;28;20365;-74
2021/12/18 08:17:16;;;;;;;;;;;6.70;99.90;;;;;;5108196;28;19985;-75
2021/12/18 08:19:43;;;;;;;;;;;6.60;99.90;;;;;;5105952;28;19963;-74
2021/12/18 08:22:09;;;;;;;;;;;6.60;99.90;;;;;;5105952;28;19924;-73
2021/12/18 08:24:36;;;;;;;;;;;6.60;99.90;;;;;;5106379;28;20038;-74
2021/12/18 08:27:03;;;;;;;;;;;6.60;99.90;;;;;;5112847;28;19924;-74
2021/12/18 08:29:30;;;;;;;;;;;6.60;99.90;;;;;;5111052;28;19934;-74
2021/12/18 08:31:56;;;;;;;;;;;6.60;99.90;;;;;;5110771;28;19966;-74
2021/12/18 08:34:25;;;;;;;;;;;6.60;99.90;;;;;;5108127;28;19934;-75
2021/12/18 08:36:52;;;;;;;;;;;6.50;99.90;;;;;;5105939;28;19927;-73
2021/12/18 08:39:18;;;;;;;;;;;6.60;99.90;;;;;;5108364;28;20018;-75
2021/12/18 08:41:46;;;;;;;;;;;6.50;99.90;;;;;;5103436;28;20374;-73
2021/12/18 08:44:13;;;;;;;;;;;6.60;99.90;;;;;;5105849;28;19928;-73
2021/12/18 08:46:40;;;;;;;;;;;6.50;99.90;;;;;;5107987;28;20307;-72
2021/12/18 08:49:07;;;;;;;;;;;6.50;99.90;;;;;;5111034;28;19924;-74
2021/12/18 08:51:36;;;;;;;;;;;6.60;99.90;;;;;;5112588;28;20018;-74
2021/12/18 08:54:02;;;;;;;;;;;6.50;99.90;;;;;;5102691;28;19938;-73
2021/12/18 08:56:29;;;;;;;;;;;6.60;99.90;;;;;;5106573;28;20014;-74
2021/12/18 08:58:56;;;;;;;;;;;6.50;99.90;;;;;;5104004;28;19961;-76
2021/12/18 09:01:24;;;;;;;;;;;6.60;99.90;;;;;;5110687;27;19931;-73
2021/12/18 09:03:51;;;;;;;;;;;6.60;99.90;;;;;;5109287;27;19924;-75
2021/12/18 09:06:18;;;;;;;;;;;6.60;99.90;;;;;;5111360;27;19930;-74
2021/12/18 09:08:46;;;;;;;;;;;6.60;99.90;;;;;;5111414;28;19936;-73
2021/12/18 09:11:13;;;;;;;;;;;6.50;99.90;;;;;;5108646;28;19932;-74
2021/12/18 09:13:40;;;;;;;;;;;6.50;99.90;;;;;;5112569;27;20319;-73
2021/12/18 09:16:07;;;;;;;;;;;6.50;99.90;;;;;;5112273;27;19930;-73
2021/12/18 09:18:33;;;;;;;;;;;6.40;99.90;;;;;;5108028;27;19932;-74
2021/12/18 09:21:00;;;;;;;;;;;6.50;99.90;;;;;;5109593;28;19985;-72
2021/12/18 09:23:27;;;;;;;;;;;6.50;99.90;;;;;;5099553;28;20577;-74
2021/12/18 09:25:55;;;;;;;;;;;6.50;99.90;;;;;;5111401;27;20426;-74
2021/12/18 09:28:22;;;;;;;;;;;6.50;99.90;;;;;;5120651;27;19928;-72
2021/12/18 09:30:48;;;;;;;;;;;6.50;99.90;;;;;;5114462;28;19924;-74
2021/12/18 09:33:17;;;;;;;;;;;6.40;99.90;;;;;;5107210;27;20415;-75
2021/12/18 09:35:44;;;;;;;;;;;6.40;99.90;;;;;;5110456;28;20432;-73
2021/12/18 09:38:11;;;;;;;;;;;6.40;99.90;;;;;;5106048;28;19938;-74
2021/12/18 09:40:38;;;;;;;;;;;6.50;99.90;;;;;;5106716;28;20015;-73
2021/12/18 09:43:07;;;;;;;;;;;6.60;99.90;;;;;;5102824;28;19931;-73
2021/12/18 09:45:34;;;;;;;;;;;6.50;99.90;;;;;;5108636;27;19923;-74
2021/12/18 09:48:01;;;;;;;;;;;6.60;99.90;;;;;;5109272;28;19930;-74
2021/12/18 09:50:29;;;;;;;;;;;6.60;99.90;;;;;;5108399;27;19924;-74
2021/12/18 09:52:55;;;;;;;;;;;6.60;99.90;;;;;;5105303;27;19932;-73
2021/12/18 09:55:22;;;;;;;;;;;6.60;99.90;;;;;;5100264;27;20355;-71
2021/12/18 09:57:49;;;;;;;;;;;6.60;99.90;;;;;;5107804;27;20394;-72
2021/12/18 10:00:19;;;;;;;;;;;6.70;99.90;;;;;;5110964;28;19987;-73
2021/12/18 10:02:46;;;;;;;;;;;6.70;99.90;;;;;;5107726;27;20295;-72
2021/12/18 10:05:21;;;;;;;;;;;6.70;99.90;;;;;;5107118;27;19966;-73
2021/12/18 10:08:05;;;;;;;;;;;6.70;99.90;;;;;;5108803;27;19943;-74
2021/12/18 10:10:32;;;;;;;;;;;6.70;99.90;;;;;;5106205;28;20602;-72
2021/12/18 10:13:02;;;;;;;;;;;6.80;99.90;;;;;;5106696;28;20010;-72
2021/12/18 10:15:30;;;;;;;;;;;6.80;99.90;;;;;;5105822;27;19932;-74
2021/12/18 10:18:04;;;;;;;;;;;6.80;99.90;;;;;;5107920;27;20298;-72
2021/12/18 10:20:31;;;;;;;;;;;6.90;99.90;;;;;;5107755;27;20490;-77
2021/12/18 10:23:02;;;;;;;;;;;6.90;99.90;;;;;;5119705;27;19908;-79
2021/12/18 10:25:31;;;;;;;;;;;6.80;99.90;;;;;;5130571;28;19924;-80
2021/12/18 10:28:02;;;;;;;;;;;6.70;99.90;;;;;;5125956;28;20531;-74
2021/12/18 10:30:31;;;;;;;;;;;6.60;99.90;;;;;;5121143;27;19912;-77
2021/12/18 10:32:59;;;;;;;;;;;6.70;99.90;;;;;;5126140;27;19995;-77
2021/12/18 10:35:36;;;;;;;;;;;6.70;99.90;;;;;;5112638;27;19930;-76
2021/12/18 10:38:03;;;;;;;;;;;6.70;99.90;;;;;;5109576;27;19951;-73
2021/12/18 10:40:40;;;;;;;;;;;6.70;99.90;;;;;;5119212;28;20026;-77
2021/12/18 10:43:07;;;;;;;;;;;6.70;99.90;;;;;;5109327;28;20970;-77
2021/12/18 10:45:36;;;;;;;;;;;6.80;99.90;;;;;;5109421;27;20010;-77
2021/12/18 10:48:03;;;;;;;;;;;6.70;99.90;;;;;;5114035;28;20499;-80
2021/12/18 10:50:33;;;;;;;;;;;6.70;99.90;;;;;;5114385;28;19938;-76
2021/12/18 10:53:01;;;;;;;;;;;6.80;99.90;;;;;;5110128;28;20010;-76
2021/12/18 11:00:48;;;;;;;;;;;6.90;99.90;;;;;;1358088;26;20379;-77
2021/12/18 11:03:32;;;;;;;;;;;6.90;99.90;;;;;;4997922;28;19934;-74
2021/12/18 11:06:06;;;;;;;;;;;6.80;99.90;;;;;;5006971;28;20450;-74
2021/12/18 11:08:34;;;;;;;;;;;6.90;99.90;;;;;;5002175;28;19934;-78
2021/12/18 11:13:38;;;;;;;;;;;6.90;99.90;;;;;;4999783;28;19941;-74
2021/12/18 11:13:48;;;;;;;;;;;6.90;99.90;;;;;;5006525;28;20083;-73
2021/12/18 11:16:18;;;;;;;;;;;7.00;99.90;;;;;;5004272;28;19940;-75
2021/12/18 11:18:45;;;;;;;;;;;6.90;99.90;;;;;;5006735;28;19925;-73
2021/12/18 11:21:15;;;;;;;;;;;6.90;99.90;;;;;;5011394;28;19926;-74
2021/12/18 11:23:49;;;;;;;;;;;7.00;99.90;;;;;;5009529;28;19932;-78
2021/12/18 11:26:16;;;;;;;;;;;7.00;99.90;;;;;;4985976;28;19984;-68
2021/12/18 11:28:44;;;;;;;;;;;7.00;99.90;;;;;;4998807;28;20319;-69
2021/12/18 11:31:11;;;;;;;;;;;7.00;99.90;;;;;;4999846;28;20367;-69
2021/12/18 11:33:40;;;;;;;;;;;7.00;99.90;;;;;;4978101;28;19961;-70
2021/12/18 12:17:31;;;;;;;;;;;6.90;99.90;;;;;;5008075;28;19957;-72
2021/12/18 12:20:03;;;;;;;;;;;6.90;99.90;;;;;;5004443;28;19933;-70
2021/12/18 12:22:47;;;;;;;;;;;7.00;99.90;;;;;;4994511;28;20032;-71
2021/12/18 12:25:15;;;;;;;;;;;7.00;99.90;;;;;;5002674;28;19925;-70
2021/12/18 12:27:43;;;;;;;;;;;6.90;99.90;;;;;;5003534;28;19930;-71
2021/12/18 12:30:11;;;;;;;;;;;6.90;99.90;;;;;;5004071;28;20294;-71
2021/12/18 12:32:55;;;;;;;;;;;6.90;99.90;;;;;;5005946;28;20452;-70
2021/12/18 12:35:22;;;;;;;;;;;6.90;99.90;;;;;;5006735;28;19933;-71
2021/12/18 12:37:50;;;;;;;;;;;7.00;99.90;;;;;;5006056;28;19987;-70
2021/12/18 12:40:20;;;;;;;;;;;7.10;99.90;;;;;;5006919;28;20008;-69
2021/12/18 12:43:02;;;;;;;;;;;7.10;99.90;;;;;;5000060;28;19968;-69
2021/12/18 12:45:35;;;;;;;;;;;7.10;99.90;;;;;;5006976;28;19933;-70
2021/12/18 12:48:04;;;;;;;;;;;7.00;99.90;;;;;;5007456;28;19957;-69
2021/12/18 12:50:31;;;;;;;;;;;7.00;99.90;;;;;;5007338;28;20302;-71
2021/12/18 12:52:59;;;;;;;;;;;7.00;99.90;;;;;;5009242;28;19944;-71
2021/12/18 12:55:29;;;;;;;;;;;7.10;99.90;;;;;;5008204;28;19931;-70
2021/12/18 12:57:57;;;;;;;;;;;7.10;99.90;;;;;;5009178;28;20086;-70
2021/12/18 13:00:35;;;;;;;;;;;7.10;99.90;;;;;;5006974;28;19947;-69
2021/12/18 13:03:06;;;;;;;;;;;7.10;99.90;;;;;;5007394;28;20379;-70
2021/12/18 13:05:44;;;;;;;;;;;7.00;99.90;;;;;;5000299;28;20012;-69
2021/12/18 13:08:11;;;;;;;;;;;7.10;99.90;;;;;;5001048;28;19933;-69
2021/12/18 13:10:39;;;;;;;;;;;7.00;99.90;;;;;;5005069;28;20392;-69
2021/12/18 13:13:10;;;;;;;;;;;7.00;99.90;;;;;;5006724;28;20371;-68
2021/12/18 13:15:46;;;;;;;;;;;7.00;99.90;;;;;;5005367;28;19936;-70
2021/12/18 13:18:13;;;;;;;;;;;7.00;99.90;;;;;;4999436;28;19925;-69
2021/12/18 13:20:44;;;;;;;;;;;7.00;99.90;;;;;;5007998;28;19925;-70
2021/12/18 13:23:14;;;;;;;;;;;7.00;99.90;;;;;;5008062;28;19933;-70
2021/12/18 13:25:48;;;;;;;;;;;7.00;99.90;;;;;;5007168;28;20036;-69
2021/12/18 13:28:14;;;;;;;;;;;7.00;99.90;;;;;;5007901;28;19951;-69
2021/12/18 13:30:41;;;;;;;;;;;7.10;99.90;;;;;;5004456;28;19934;-69
2021/12/18 13:33:08;;;;;;;;;;;7.00;99.90;;;;;;5007553;28;19936;-67
2021/12/18 13:35:36;;;;;;;;;;;7.00;99.90;;;;;;5010244;28;19925;-70
2021/12/18 13:38:06;;;;;;;;;;;7.10;99.90;;;;;;5007376;28;20351;-70
2021/12/18 13:40:34;;;;;;;;;;;7.10;99.90;;;;;;5003640;28;19929;-71
2021/12/18 13:43:05;;;;;;;;;;;7.10;99.90;;;;;;5006579;28;19936;-71
2021/12/18 13:45:32;;;;;;;;;;;7.10;99.90;;;;;;5007328;28;19992;-72
2021/12/18 13:48:02;;;;;;;;;;;7.10;99.90;;;;;;5008563;28;19932;-71
2021/12/18 13:50:29;;;;;;;;;;;7.10;99.90;;;;;;5009423;28;19929;-72
2021/12/18 13:52:57;;;;;;;;;;;7.20;99.90;;;;;;5011942;28;19993;-77
2021/12/18 13:55:29;;;;;;;;;;;7.20;99.90;;;;;;5005043;28;19933;-71
2021/12/18 13:57:57;;;;;;;;;;;7.20;99.90;;;;;;5003824;28;19929;-72
2021/12/18 14:00:26;;;;;;;;;;;7.20;99.90;;;;;;5005760;28;20406;-72
2021/12/18 14:02:53;;;;;;;;;;;7.20;99.90;;;;;;5009893;28;20284;-72
2021/12/18 14:05:19;;;;;;;;;;;7.20;99.90;;;;;;5009893;28;19948;-72
2021/12/18 14:07:46;;;;;;;;;;;7.20;99.90;;;;;;5003245;28;19933;-73
2021/12/18 14:10:13;;;;;;;;;;;7.20;99.90;;;;;;5005126;28;19926;-71
2021/12/18 14:12:41;;;;;;;;;;;7.20;99.90;;;;;;5004203;28;19931;-72
2021/12/18 14:15:16;;;;;;;;;;;7.20;99.90;;;;;;5007486;28;19925;-72
2021/12/18 14:17:43;;;;;;;;;;;7.10;99.90;;;;;;5001520;28;20417;-70
2021/12/18 14:20:11;;;;;;;;;;;7.10;99.90;;;;;;5005999;28;20383;-69
2021/12/18 14:22:38;;;;;;;;;;;7.10;99.90;;;;;;5007641;28;19936;-70
2021/12/18 14:25:06;;;;;;;;;;;7.00;99.90;;;;;;5005744;28;20291;-71
2021/12/18 14:27:39;;;;;;;;;;;7.00;99.90;;;;;;5008268;28;19929;-71
2021/12/18 14:30:14;;;;;;;;;;;7.00;99.90;;;;;;5009628;28;20296;-70
2021/12/18 14:32:41;;;;;;;;;;;7.00;99.90;;;;;;5009148;28;19946;-70
2021/12/18 14:35:10;;;;;;;;;;;7.00;99.90;;;;;;5009264;28;19969;-76
2021/12/18 14:37:47;;;;;;;;;;;7.00;99.90;;;;;;5010977;28;19953;-75
2021/12/18 14:40:16;;;;;;;;;;;6.90;99.90;;;;;;5006356;28;19929;-72
2021/12/18 14:42:54;;;;;;;;;;;6.90;99.90;;;;;;5006776;28;20466;-75
2021/12/18 14:45:24;;;;;;;;;;;6.90;99.90;;;;;;5006958;28;19925;-75
2021/12/18 14:47:51;;;;;;;;;;;6.90;99.90;;;;;;5003141;28;20299;-72
2021/12/18 14:50:19;;;;;;;;;;;6.80;99.90;;;;;;5007219;28;19933;-72
2021/12/18 14:53:03;;;;;;;;;;;6.80;99.90;;;;;;5004370;28;19932;-72
2021/12/18 14:55:31;;;;;;;;;;;6.80;99.90;;;;;;5005229;28;19926;-75
2021/12/18 14:57:59;;;;;;;;;;;6.80;99.90;;;;;;5004888;28;19934;-71
2021/12/18 15:00:28;;;;;;;;;;;6.70;99.90;;;;;;5004964;28;20342;-72
2021/12/18 15:02:58;;;;;;;;;;;6.70;99.90;;;;;;4998492;28;19939;-72
2021/12/18 15:05:25;;;;;;;;;;;6.70;99.90;;;;;;5003688;28;19960;-71
2021/12/18 15:08:03;;;;;;;;;;;6.70;99.90;;;;;;5001786;28;19934;-71
2021/12/18 15:10:45;;;;;;;;;;;6.60;99.90;;;;;;5001562;28;19952;-70
2021/12/18 15:13:12;;;;;;;;;;;6.60;99.90;;;;;;5004327;28;20485;-71
2021/12/18 15:15:40;;;;;;;;;;;6.50;99.90;;;;;;5005136;28;19969;-71
2021/12/18 15:18:07;;;;;;;;;;;6.60;99.90;;;;;;5005007;28;19933;-71
2021/12/18 15:20:34;;;;;;;;;;;6.60;99.90;;;;;;5002376;28;19933;-71
2021/12/18 15:23:01;;;;;;;;;;;6.60;99.90;;;;;;5005293;28;19932;-71
2021/12/18 15:25:28;;;;;;;;;;;6.60;99.90;;;;;;5005319;28;19925;-71
2021/12/18 15:27:55;;;;;;;;;;;6.60;99.90;;;;;;5004423;28;19952;-72
2021/12/18 15:30:22;;;;;;;;;;;6.60;99.90;;;;;;5002675;28;19949;-71
2021/12/18 15:32:50;;;;;;;;;;;6.60;99.90;;;;;;5004493;28;20308;-72
2021/12/18 15:35:17;;;;;;;;;;;6.60;99.90;;;;;;5005572;28;19926;-71
2021/12/18 15:37:46;;;;;;;;;;;6.60;99.90;;;;;;5004338;28;19932;-72
2021/12/18 15:40:15;;;;;;;;;;;6.50;99.90;;;;;;5001649;28;19929;-72
2021/12/18 15:42:42;;;;;;;;;;;6.50;99.90;;;;;;5003447;28;19936;-70
2021/12/18 15:45:09;;;;;;;;;;;6.50;99.90;;;;;;5004846;28;19925;-72
2021/12/18 15:47:36;;;;;;;;;;;6.50;99.90;;;;;;4999939;28;19972;-73
2021/12/18 15:50:04;;;;;;;;;;;6.50;99.90;;;;;;5003006;28;20017;-72
2021/12/18 15:52:31;;;;;;;;;;;6.50;99.90;;;;;;5002359;28;20300;-71
2021/12/18 15:54:58;;;;;;;;;;;6.50;99.90;;;;;;5000926;28;19929;-71
2021/12/18 15:57:24;;;;;;;;;;;6.40;99.90;;;;;;4995047;28;22358;-72